Time;durP1;ratioP1;P1;durP2;ratioP2;P2;SDS_P1;SDS_P2;PMS_P1;PMS_P2;Temp;Humidity;BMP_temperature;BMP_pressure;BME280_temperature;BME280_humidity;BME280_pressure;Samples;Min_cycle;Max_cycle;Signal;HPM_P1;HPM_P2
2023/03/04 00:00:32;;;;;;;17.55;2.75;;;;;;;;;;5071110;28;20923;-81
2023/03/04 00:03:06;;;;;;;12.95;2.03;;;;;;;;;;5086924;28;20426;-81
2023/03/04 00:05:33;;;;;;;14.68;2.30;;;;;;;;;;5070847;28;20416;-81
2023/03/04 00:08:01;;;;;;;15.55;2.28;;;;;;;;;;5070436;28;20901;-82
2023/03/04 00:10:29;;;;;;;13.95;2.00;;;;;;;;;;5082222;28;20936;-81
2023/03/04 00:13:01;;;;;;;16.02;2.38;;;;;;;;;;5064148;28;20632;-82
2023/03/04 00:15:36;;;;;;;14.43;2.15;;;;;;;;;;5090035;28;20410;-81
2023/03/04 00:18:04;;;;;;;14.20;2.00;;;;;;;;;;5070656;28;20410;-82
2023/03/04 00:20:31;;;;;;;12.90;2.15;;;;;;;;;;5080415;28;20408;-82
2023/03/04 00:22:59;;;;;;;11.15;1.92;;;;;;;;;;5079190;28;20415;-83
2023/03/04 00:25:27;;;;;;;13.35;1.98;;;;;;;;;;5081458;28;20426;-82
2023/03/04 00:28:00;;;;;;;15.63;1.88;;;;;;;;;;5084423;28;20426;-81
2023/03/04 00:30:27;;;;;;;11.80;1.77;;;;;;;;;;5067313;28;20430;-82
2023/03/04 00:33:02;;;;;;;16.42;2.15;;;;;;;;;;5066920;28;20784;-82
2023/03/04 00:35:34;;;;;;;13.30;1.70;;;;;;;;;;5082903;28;20415;-81
2023/03/04 00:38:02;;;;;;;13.00;1.57;;;;;;;;;;5062562;28;20419;-82
2023/03/04 00:40:36;;;;;;;14.65;2.30;;;;;;;;;;5058508;28;20398;-81
2023/03/04 00:43:04;;;;;;;10.60;1.58;;;;;;;;;;5065558;28;20415;-83
2023/03/04 00:45:37;;;;;;;14.02;1.75;;;;;;;;;;5065304;28;20431;-81
2023/03/04 00:48:11;;;;;;;11.18;1.50;;;;;;;;;;5067966;28;20900;-81
2023/03/04 00:50:39;;;;;;;13.55;1.92;;;;;;;;;;5079385;28;20429;-81
2023/03/04 00:53:07;;;;;;;10.57;1.58;;;;;;;;;;5059211;28;20411;-81
2023/03/04 00:55:40;;;;;;;13.90;1.70;;;;;;;;;;5061617;28;20405;-82
2023/03/04 00:58:07;;;;;;;13.93;1.75;;;;;;;;;;5065706;28;20423;-81
2023/03/04 01:00:40;;;;;;;8.00;1.48;;;;;;;;;;5084491;28;20434;-82
2023/03/04 01:03:08;;;;;;;10.38;1.70;;;;;;;;;;5061033;28;20425;-82
2023/03/04 01:05:37;;;;;;;9.75;1.50;;;;;;;;;;5081620;28;20421;-81
2023/03/04 01:08:05;;;;;;;8.83;1.37;;;;;;;;;;5071417;28;20791;-83
2023/03/04 01:10:33;;;;;;;13.00;1.75;;;;;;;;;;5065784;28;20429;-82
2023/03/04 01:13:01;;;;;;;8.65;1.40;;;;;;;;;;5070577;28;20874;-81
2023/03/04 01:15:34;;;;;;;12.10;1.63;;;;;;;;;;5080815;28;20436;-82
2023/03/04 01:18:06;;;;;;;9.57;1.80;;;;;;;;;;5077339;28;20415;-82
2023/03/04 01:20:35;;;;;;;8.13;1.38;;;;;;;;;;5074880;28;20422;-81
2023/03/04 01:23:04;;;;;;;10.05;1.48;;;;;;;;;;5082708;28;20399;-81
2023/03/04 01:25:32;;;;;;;14.80;1.50;;;;;;;;;;5071586;28;20430;-82
2023/03/04 01:28:00;;;;;;;11.35;1.33;;;;;;;;;;5069205;28;20434;-82
2023/03/04 01:30:28;;;;;;;8.05;1.25;;;;;;;;;;5079891;28;20413;-81
2023/03/04 01:32:56;;;;;;;6.87;1.20;;;;;;;;;;5059222;28;20769;-82
2023/03/04 01:35:24;;;;;;;11.10;1.30;;;;;;;;;;5087386;28;20402;-82
2023/03/04 01:37:57;;;;;;;8.02;1.63;;;;;;;;;;5076234;28;20772;-81
2023/03/04 01:40:31;;;;;;;9.50;1.23;;;;;;;;;;5084625;28;20428;-81
2023/03/04 01:42:59;;;;;;;11.38;1.60;;;;;;;;;;5079325;28;20410;-81
2023/03/04 01:45:27;;;;;;;11.85;1.50;;;;;;;;;;5072369;28;20428;-82
2023/03/04 01:48:00;;;;;;;12.07;1.60;;;;;;;;;;5063973;28;20440;-82
2023/03/04 01:50:30;;;;;;;10.13;1.33;;;;;;;;;;5078657;28;20427;-82
2023/03/04 01:53:03;;;;;;;11.50;1.25;;;;;;;;;;5079662;28;20422;-82
2023/03/04 01:55:32;;;;;;;8.15;1.20;;;;;;;;;;5078635;28;20419;-81
2023/03/04 01:58:05;;;;;;;8.32;1.50;;;;;;;;;;5057774;28;20900;-82
2023/03/04 02:00:40;;;;;;;6.53;1.17;;;;;;;;;;5069974;28;20426;-81
2023/03/04 02:03:10;;;;;;;10.13;1.13;;;;;;;;;;5067351;28;21029;-82
2023/03/04 02:05:45;;;;;;;9.85;1.50;;;;;;;;;;5062554;28;20407;-82
2023/03/04 02:08:19;;;;;;;8.05;1.23;;;;;;;;;;5078986;28;20422;-82
2023/03/04 02:10:48;;;;;;;9.05;1.55;;;;;;;;;;5068646;28;20412;-82
2023/03/04 02:13:16;;;;;;;9.63;1.40;;;;;;;;;;5080233;28;20446;-81
2023/03/04 02:15:44;;;;;;;5.13;1.00;;;;;;;;;;5072425;28;20424;-82
2023/03/04 02:18:15;;;;;;;10.75;1.50;;;;;;;;;;5076778;28;20411;-82
2023/03/04 02:20:45;;;;;;;8.52;1.20;;;;;;;;;;5064796;28;20421;-81
2023/03/04 02:23:21;;;;;;;14.93;1.47;;;;;;;;;;5061759;28;20435;-81
2023/03/04 02:26:07;;;;;;;10.23;1.20;;;;;;;;;;5067996;28;20407;-82
2023/03/04 02:28:39;;;;;;;7.90;1.30;;;;;;;;;;5086977;28;20911;-82
2023/03/04 02:31:09;;;;;;;9.60;1.30;;;;;;;;;;5066563;28;21005;-82
2023/03/04 02:33:42;;;;;;;8.93;1.33;;;;;;;;;;5079194;28;20498;-81
2023/03/04 02:36:15;;;;;;;8.73;1.30;;;;;;;;;;5064123;28;20508;-82
2023/03/04 02:38:49;;;;;;;9.35;1.15;;;;;;;;;;5061551;28;20414;-81
2023/03/04 02:41:25;;;;;;;6.70;1.05;;;;;;;;;;5063436;28;20419;-82
2023/03/04 02:43:58;;;;;;;8.23;1.40;;;;;;;;;;5065631;28;20408;-83
2023/03/04 02:46:27;;;;;;;13.43;1.50;;;;;;;;;;5069636;28;20425;-81
2023/03/04 02:49:00;;;;;;;10.55;1.60;;;;;;;;;;5073611;28;20420;-81
2023/03/04 02:51:28;;;;;;;9.13;1.40;;;;;;;;;;5067855;28;20410;-81
2023/03/04 02:53:56;;;;;;;10.43;1.70;;;;;;;;;;5073111;28;20417;-82
2023/03/04 02:56:25;;;;;;;9.93;1.65;;;;;;;;;;5079049;28;20420;-82
2023/03/04 02:58:58;;;;;;;9.05;1.42;;;;;;;;;;5082007;28;20411;-81
2023/03/04 03:01:31;;;;;;;9.85;1.50;;;;;;;;;;5068193;28;20423;-82
2023/03/04 03:04:04;;;;;;;10.23;1.58;;;;;;;;;;5079978;28;20427;-81
2023/03/04 03:06:37;;;;;;;7.80;1.27;;;;;;;;;;5084168;28;20416;-82
2023/03/04 03:09:05;;;;;;;8.77;1.45;;;;;;;;;;5071948;28;20461;-81
2023/03/04 03:11:39;;;;;;;7.07;1.15;;;;;;;;;;5086897;28;20411;-82
2023/03/04 03:14:07;;;;;;;6.90;1.17;;;;;;;;;;5063778;28;20430;-82
2023/03/04 03:16:34;;;;;;;12.55;1.38;;;;;;;;;;5067725;28;20422;-82
2023/03/04 03:19:03;;;;;;;6.55;1.20;;;;;;;;;;5063482;28;20783;-81
2023/03/04 03:21:36;;;;;;;10.80;1.33;;;;;;;;;;5066616;28;20416;-81
2023/03/04 03:24:11;;;;;;;10.50;1.50;;;;;;;;;;5067166;28;20413;-83
2023/03/04 03:26:40;;;;;;;11.50;1.80;;;;;;;;;;5084935;28;20749;-81
2023/03/04 03:29:14;;;;;;;9.38;1.40;;;;;;;;;;5067884;28;20404;-82
2023/03/04 03:31:42;;;;;;;11.15;1.48;;;;;;;;;;5076592;28;20422;-81
2023/03/04 03:34:15;;;;;;;9.15;1.27;;;;;;;;;;5079567;28;20416;-81
2023/03/04 03:36:42;;;;;;;7.68;1.10;;;;;;;;;;5069154;28;20409;-82
2023/03/04 03:39:10;;;;;;;8.57;1.30;;;;;;;;;;5070741;28;20806;-81
2023/03/04 03:41:38;;;;;;;4.85;1.20;;;;;;;;;;5065928;28;20427;-81
2023/03/04 03:44:12;;;;;;;10.52;1.33;;;;;;;;;;5073598;28;20773;-81
2023/03/04 03:46:45;;;;;;;9.68;1.35;;;;;;;;;;5090171;28;20418;-81
2023/03/04 03:49:18;;;;;;;8.50;1.20;;;;;;;;;;5068278;28;20419;-82
2023/03/04 03:51:51;;;;;;;10.32;1.55;;;;;;;;;;5071124;28;20811;-83
2023/03/04 03:54:19;;;;;;;6.18;1.00;;;;;;;;;;5079539;28;20424;-81
2023/03/04 03:56:52;;;;;;;8.70;1.30;;;;;;;;;;5076722;28;20911;-81
2023/03/04 03:59:22;;;;;;;11.60;1.58;;;;;;;;;;5086905;28;20403;-81
2023/03/04 04:01:50;;;;;;;7.57;1.10;;;;;;;;;;5081204;28;20406;-82
2023/03/04 04:04:23;;;;;;;11.50;1.60;;;;;;;;;;5081351;28;20415;-82
2023/03/04 04:06:56;;;;;;;9.87;1.20;;;;;;;;;;5069261;28;20433;-81
2023/03/04 04:09:29;;;;;;;7.83;1.20;;;;;;;;;;5076201;28;20424;-82
2023/03/04 04:12:04;;;;;;;8.03;1.10;;;;;;;;;;5084932;28;20411;-81
2023/03/04 04:14:33;;;;;;;9.17;1.23;;;;;;;;;;5072744;28;20428;-82
2023/03/04 04:17:01;;;;;;;10.45;1.25;;;;;;;;;;5084606;28;20421;-81
2023/03/04 04:19:34;;;;;;;11.73;1.55;;;;;;;;;;5086130;28;20418;-81
2023/03/04 04:22:01;;;;;;;7.88;1.52;;;;;;;;;;5066963;28;20417;-82
2023/03/04 04:24:29;;;;;;;10.75;1.60;;;;;;;;;;5078382;28;20418;-81
2023/03/04 04:26:57;;;;;;;11.40;1.48;;;;;;;;;;5071439;28;20414;-82
2023/03/04 04:29:25;;;;;;;9.02;1.13;;;;;;;;;;5082815;28;20412;-81
2023/03/04 04:31:59;;;;;;;9.57;1.65;;;;;;;;;;5071398;28;20427;-82
2023/03/04 04:34:32;;;;;;;10.15;1.30;;;;;;;;;;5069205;28;20430;-81
2023/03/04 04:37:05;;;;;;;11.40;1.73;;;;;;;;;;5068951;28;20426;-82
2023/03/04 04:39:38;;;;;;;11.57;1.50;;;;;;;;;;5084263;28;20424;-82
2023/03/04 04:42:05;;;;;;;7.75;1.35;;;;;;;;;;5068447;28;20418;-81
2023/03/04 04:44:38;;;;;;;5.57;0.93;;;;;;;;;;5066959;28;20418;-81
2023/03/04 04:47:12;;;;;;;9.52;1.80;;;;;;;;;;5072215;28;20410;-82
2023/03/04 04:49:40;;;;;;;8.02;1.27;;;;;;;;;;5061023;28;20419;-81
2023/03/04 04:52:08;;;;;;;7.32;1.10;;;;;;;;;;5064280;28;20764;-82
2023/03/04 04:54:35;;;;;;;8.50;1.23;;;;;;;;;;5064754;28;20414;-81
2023/03/04 04:57:03;;;;;;;9.25;1.33;;;;;;;;;;5066428;28;20430;-81
2023/03/04 04:59:31;;;;;;;11.15;1.25;;;;;;;;;;5079168;28;20426;-82
2023/03/04 05:02:04;;;;;;;7.53;1.50;;;;;;;;;;5068833;28;20856;-81
2023/03/04 05:04:38;;;;;;;11.43;1.42;;;;;;;;;;5071719;28;20414;-82
2023/03/04 05:07:06;;;;;;;8.55;1.40;;;;;;;;;;5081283;28;20423;-82
2023/03/04 05:09:33;;;;;;;10.20;1.40;;;;;;;;;;5076828;28;20418;-81
2023/03/04 05:12:06;;;;;;;12.75;1.50;;;;;;;;;;5058886;28;20772;-81
2023/03/04 05:14:39;;;;;;;12.68;1.98;;;;;;;;;;5066745;28;20426;-81
2023/03/04 05:17:12;;;;;;;10.75;1.95;;;;;;;;;;5071303;28;20421;-81
2023/03/04 05:19:41;;;;;;;10.95;1.73;;;;;;;;;;5063200;28;20412;-83
2023/03/04 05:22:14;;;;;;;11.40;1.52;;;;;;;;;;5067103;28;20933;-82
2023/03/04 05:24:47;;;;;;;12.55;1.58;;;;;;;;;;5061547;28;20401;-82
2023/03/04 05:27:14;;;;;;;12.93;2.00;;;;;;;;;;5079509;28;20398;-82
2023/03/04 05:29:43;;;;;;;14.05;1.63;;;;;;;;;;5072248;28;20418;-82
2023/03/04 05:32:16;;;;;;;12.30;1.52;;;;;;;;;;5063023;28;20442;-80
2023/03/04 05:34:45;;;;;;;9.38;1.70;;;;;;;;;;5066066;28;20420;-81
2023/03/04 05:37:13;;;;;;;12.00;1.63;;;;;;;;;;5079211;28;20420;-80
2023/03/04 05:39:46;;;;;;;17.05;2.10;;;;;;;;;;5088410;28;20421;-82
2023/03/04 05:42:18;;;;;;;12.33;1.90;;;;;;;;;;5060970;28;20410;-81
2023/03/04 05:44:46;;;;;;;14.13;2.13;;;;;;;;;;5081469;28;20506;-81
2023/03/04 05:47:14;;;;;;;16.48;2.08;;;;;;;;;;5085292;28;20407;-81
2023/03/04 05:49:43;;;;;;;14.65;2.20;;;;;;;;;;5070673;28;20429;-83
2023/03/04 05:52:17;;;;;;;15.38;2.35;;;;;;;;;;5066520;28;20411;-82
2023/03/04 05:54:45;;;;;;;17.67;2.67;;;;;;;;;;5080555;28;20426;-81
2023/03/04 05:57:17;;;;;;;20.40;2.58;;;;;;;;;;5074823;28;20501;-81
2023/03/04 05:59:50;;;;;;;24.77;3.25;;;;;;;;;;5076073;28;20422;-81
2023/03/04 06:02:23;;;;;;;18.95;3.20;;;;;;;;;;5065323;28;20956;-80
2023/03/04 06:04:51;;;;;;;17.75;2.67;;;;;;;;;;5058493;28;20422;-81
2023/03/04 06:07:20;;;;;;;27.52;3.38;;;;;;;;;;5076105;28;20915;-82
2023/03/04 06:09:48;;;;;;;18.50;2.30;;;;;;;;;;5069782;28;20432;-82
2023/03/04 06:12:21;;;;;;;20.83;2.40;;;;;;;;;;5074228;28;20423;-82
2023/03/04 06:14:48;;;;;;;18.13;2.72;;;;;;;;;;5075363;28;20425;-82
2023/03/04 06:17:21;;;;;;;19.70;3.15;;;;;;;;;;5073072;28;20454;-81
2023/03/04 06:19:54;;;;;;;18.83;2.90;;;;;;;;;;5062476;28;20949;-81
2023/03/04 06:22:23;;;;;;;19.88;2.92;;;;;;;;;;5080698;28;20422;-81
2023/03/04 06:24:56;;;;;;;24.50;3.15;;;;;;;;;;5087691;28;20421;-81
2023/03/04 06:27:29;;;;;;;23.27;2.92;;;;;;;;;;5081804;28;20428;-81
2023/03/04 06:30:02;;;;;;;20.17;2.83;;;;;;;;;;5069308;28;20414;-81
2023/03/04 06:32:34;;;;;;;19.27;2.92;;;;;;;;;;5081090;28;20876;-81
2023/03/04 06:35:08;;;;;;;21.65;3.30;;;;;;;;;;5079195;28;20423;-81
2023/03/04 06:37:37;;;;;;;21.10;3.05;;;;;;;;;;5072526;28;20421;-82
2023/03/04 06:40:10;;;;;;;20.10;2.90;;;;;;;;;;5072869;28;20438;-81
2023/03/04 06:42:43;;;;;;;24.90;3.13;;;;;;;;;;5089494;28;20401;-82
2023/03/04 06:45:12;;;;;;;20.65;3.17;;;;;;;;;;5062357;28;20915;-81
2023/03/04 06:47:44;;;;;;;22.27;3.05;;;;;;;;;;5067017;28;20424;-81
2023/03/04 06:50:12;;;;;;;22.60;2.88;;;;;;;;;;5078348;28;20427;-82
2023/03/04 06:52:42;;;;;;;21.45;2.78;;;;;;;;;;5083462;28;22181;-82
2023/03/04 06:55:14;;;;;;;19.77;2.90;;;;;;;;;;5074207;28;20806;-81
2023/03/04 06:57:42;;;;;;;22.10;2.78;;;;;;;;;;5072125;28;21398;-83
2023/03/04 07:00:10;;;;;;;20.20;2.65;;;;;;;;;;5082765;28;20419;-82
2023/03/04 07:02:38;;;;;;;20.20;2.78;;;;;;;;;;5061666;28;20439;-82
2023/03/04 07:05:06;;;;;;;18.65;2.80;;;;;;;;;;5064442;28;20426;-81
2023/03/04 07:07:39;;;;;;;22.00;2.95;;;;;;;;;;5064379;28;20427;-81
2023/03/04 07:10:09;;;;;;;16.75;2.47;;;;;;;;;;5065608;28;20427;-81
2023/03/04 07:12:42;;;;;;;15.20;2.58;;;;;;;;;;5086044;28;20427;-82
2023/03/04 07:15:15;;;;;;;17.83;2.63;;;;;;;;;;5067077;28;20412;-81
2023/03/04 07:17:43;;;;;;;15.63;2.35;;;;;;;;;;5068015;28;20422;-82
2023/03/04 07:20:11;;;;;;;16.25;2.28;;;;;;;;;;5069042;28;20422;-81
2023/03/04 07:22:44;;;;;;;20.70;2.40;;;;;;;;;;5074064;28;20414;-81
2023/03/04 07:25:18;;;;;;;20.83;2.67;;;;;;;;;;5074331;28;21212;-82
2023/03/04 07:27:51;;;;;;;18.50;2.40;;;;;;;;;;5080783;28;20419;-81
2023/03/04 07:30:19;;;;;;;11.55;2.05;;;;;;;;;;5068123;28;20870;-81
2023/03/04 07:32:52;;;;;;;15.85;2.47;;;;;;;;;;5067919;28;20714;-82
2023/03/04 07:35:24;;;;;;;13.60;2.28;;;;;;;;;;5084130;28;20493;-82
2023/03/04 07:37:57;;;;;;;19.85;2.90;;;;;;;;;;5067138;28;20418;-81
2023/03/04 07:40:31;;;;;;;16.60;2.40;;;;;;;;;;5079663;28;20904;-82
2023/03/04 07:43:04;;;;;;;16.85;2.72;;;;;;;;;;5077668;28;20776;-81
2023/03/04 07:45:37;;;;;;;13.38;2.33;;;;;;;;;;5067882;28;20414;-81
2023/03/04 07:48:10;;;;;;;17.13;2.10;;;;;;;;;;5061463;28;20919;-81
2023/03/04 07:50:43;;;;;;;19.73;2.30;;;;;;;;;;5072586;28;20785;-82
2023/03/04 07:53:15;;;;;;;12.50;2.00;;;;;;;;;;5079072;28;20426;-82
2023/03/04 07:55:50;;;;;;;12.63;2.10;;;;;;;;;;5066806;28;20422;-82
2023/03/04 07:58:22;;;;;;;18.33;2.70;;;;;;;;;;5080136;28;20406;-82
2023/03/04 08:00:50;;;;;;;13.93;2.42;;;;;;;;;;5081500;28;20753;-82
2023/03/04 08:03:18;;;;;;;19.95;2.40;;;;;;;;;;5080022;28;20888;-82
2023/03/04 08:05:51;;;;;;;15.68;2.55;;;;;;;;;;5060558;28;20430;-80
2023/03/04 08:08:23;;;;;;;15.85;2.90;;;;;;;;;;5070086;28;20933;-81
2023/03/04 08:10:52;;;;;;;20.48;2.35;;;;;;;;;;5067186;28;20427;-81
2023/03/04 08:13:20;;;;;;;14.77;2.10;;;;;;;;;;5069803;28;20435;-81
2023/03/04 08:15:55;;;;;;;15.73;2.40;;;;;;;;;;5070930;28;20438;-81
2023/03/04 08:18:23;;;;;;;19.00;3.15;;;;;;;;;;5061608;28;20423;-82
2023/03/04 08:20:55;;;;;;;12.73;2.28;;;;;;;;;;5071650;28;20444;-81
2023/03/04 08:23:28;;;;;;;19.73;2.70;;;;;;;;;;5082989;28;20790;-82
2023/03/04 08:26:07;;;;;;;20.60;3.97;;;;;;;;;;5084860;28;20414;-84
2023/03/04 08:28:35;;;;;;;19.88;2.63;;;;;;;;;;5067446;28;20410;-82
2023/03/04 08:31:08;;;;;;;21.83;3.57;;;;;;;;;;5078945;28;20959;-82
2023/03/04 08:33:35;;;;;;;21.57;2.80;;;;;;;;;;5059827;28;20447;-83
2023/03/04 08:36:09;;;;;;;15.77;2.57;;;;;;;;;;5080089;28;20426;-82
2023/03/04 08:38:36;;;;;;;19.17;2.90;;;;;;;;;;5083098;28;20416;-81
2023/03/04 08:41:11;;;;;;;16.83;2.55;;;;;;;;;;5086010;28;20449;-82
2023/03/04 08:43:43;;;;;;;17.37;3.03;;;;;;;;;;5065480;28;20457;-82
2023/03/04 08:46:11;;;;;;;17.13;2.50;;;;;;;;;;5076897;28;20431;-81
2023/03/04 08:48:44;;;;;;;21.58;3.03;;;;;;;;;;5067649;28;20423;-82
2023/03/04 08:51:17;;;;;;;17.50;3.25;;;;;;;;;;5069919;28;20426;-81
2023/03/04 08:53:45;;;;;;;15.73;2.47;;;;;;;;;;5073258;28;20428;-81
2023/03/04 08:56:19;;;;;;;22.90;3.25;;;;;;;;;;5078661;28;20435;-82
2023/03/04 08:58:47;;;;;;;26.70;6.88;;;;;;;;;;5068860;28;20786;-81
2023/03/04 09:01:15;;;;;;;22.08;3.67;;;;;;;;;;5084206;28;20898;-81
2023/03/04 09:03:43;;;;;;;16.45;3.00;;;;;;;;;;5083911;28;21094;-81
2023/03/04 09:06:16;;;;;;;18.85;3.30;;;;;;;;;;5088372;28;20414;-81
2023/03/04 09:08:44;;;;;;;20.58;3.35;;;;;;;;;;5069229;28;20411;-82
2023/03/04 09:11:16;;;;;;;25.15;3.38;;;;;;;;;;5067638;28;20419;-83
2023/03/04 09:13:45;;;;;;;19.83;3.33;;;;;;;;;;5066436;28;20417;-83
2023/03/04 09:16:19;;;;;;;15.73;2.40;;;;;;;;;;5077438;28;20419;-81
2023/03/04 09:18:46;;;;;;;14.32;2.35;;;;;;;;;;5080040;28;20403;-81
2023/03/04 09:21:19;;;;;;;15.90;2.63;;;;;;;;;;5059883;28;20426;-81
2023/03/04 09:23:52;;;;;;;19.73;3.10;;;;;;;;;;5076794;28;20458;-82
2023/03/04 09:26:21;;;;;;;18.38;3.30;;;;;;;;;;5079920;28;20420;-82
2023/03/04 09:28:57;;;;;;;17.95;3.40;;;;;;;;;;5076623;28;20428;-81
2023/03/04 09:31:25;;;;;;;19.50;3.42;;;;;;;;;;5062850;28;20510;-82
2023/03/04 09:33:53;;;;;;;22.05;3.20;;;;;;;;;;5079253;28;20425;-82
2023/03/04 09:36:21;;;;;;;19.50;3.05;;;;;;;;;;5077201;28;20426;-83
2023/03/04 09:38:54;;;;;;;20.70;3.53;;;;;;;;;;5081609;28;20432;-83
2023/03/04 09:41:31;;;;;;;21.95;3.30;;;;;;;;;;5080058;28;20432;-82
2023/03/04 09:44:07;;;;;;;21.17;3.88;;;;;;;;;;5055814;28;20512;-83
2023/03/04 09:46:37;;;;;;;20.08;3.80;;;;;;;;;;5058856;28;20430;-82
2023/03/04 09:49:11;;;;;;;19.60;3.63;;;;;;;;;;5065663;28;20441;-83
2023/03/04 09:51:46;;;;;;;24.75;3.65;;;;;;;;;;5071448;28;20421;-82
2023/03/04 09:54:17;;;;;;;15.35;2.80;;;;;;;;;;5066393;28;20444;-82
2023/03/04 09:56:51;;;;;;;23.00;3.33;;;;;;;;;;5067006;28;20915;-82
2023/03/04 09:59:23;;;;;;;20.40;3.03;;;;;;;;;;5065103;28;20916;-82
2023/03/04 10:01:58;;;;;;;18.73;3.00;;;;;;;;;;5079916;28;20436;-81
2023/03/04 10:04:31;;;;;;;21.75;3.15;;;;;;;;;;5078450;28;20429;-81
2023/03/04 10:07:04;;;;;;;19.63;3.13;;;;;;;;;;5077207;28;20426;-82
2023/03/04 10:09:43;;;;;;;18.35;2.83;;;;;;;;;;5078290;28;20430;-81
2023/03/04 10:12:19;;;;;;;16.70;3.10;;;;;;;;;;5080601;28;20418;-81
2023/03/04 10:14:56;;;;;;;15.65;2.88;;;;;;;;;;5074197;28;20765;-82
2023/03/04 10:17:29;;;;;;;25.38;3.22;;;;;;;;;;5068253;28;20442;-81
2023/03/04 10:20:03;;;;;;;18.00;2.70;;;;;;;;;;5079099;28;20452;-82
2023/03/04 10:22:34;;;;;;;18.43;2.77;;;;;;;;;;5081773;28;20855;-81
2023/03/04 10:25:14;;;;;;;17.33;2.70;;;;;;;;;;5082756;28;20421;-83
2023/03/04 10:27:49;;;;;;;17.30;2.63;;;;;;;;;;5077998;28;20419;-82
2023/03/04 10:30:23;;;;;;;17.13;2.65;;;;;;;;;;5080213;28;20423;-82
2023/03/04 10:32:56;;;;;;;18.02;3.08;;;;;;;;;;5063318;28;20429;-82
2023/03/04 10:35:27;;;;;;;18.40;3.15;;;;;;;;;;5066420;28;20438;-82
2023/03/04 10:37:55;;;;;;;17.60;2.92;;;;;;;;;;5062514;28;20427;-82
2023/03/04 10:40:24;;;;;;;19.17;2.92;;;;;;;;;;5070203;28;20419;-83
2023/03/04 10:42:59;;;;;;;21.92;3.15;;;;;;;;;;5080796;28;21010;-82
2023/03/04 10:45:34;;;;;;;19.88;2.92;;;;;;;;;;5067313;28;20781;-82
2023/03/04 10:48:07;;;;;;;19.27;3.03;;;;;;;;;;5059524;28;20413;-82
2023/03/04 10:50:39;;;;;;;20.48;3.45;;;;;;;;;;5076970;28;20794;-82
2023/03/04 10:53:22;;;;;;;18.20;3.17;;;;;;;;;;5079594;28;20904;-82
2023/03/04 10:55:54;;;;;;;19.30;3.28;;;;;;;;;;5074267;28;20424;-82
2023/03/04 10:58:27;;;;;;;22.48;3.47;;;;;;;;;;5065561;28;20436;-82
2023/03/04 11:01:04;;;;;;;18.55;2.90;;;;;;;;;;5062566;28;20415;-82
2023/03/04 11:03:33;;;;;;;19.55;3.10;;;;;;;;;;5065302;28;20488;-82
2023/03/04 11:06:14;;;;;;;16.70;2.80;;;;;;;;;;5064786;28;20427;-83
2023/03/04 11:08:42;;;;;;;22.02;3.85;;;;;;;;;;5083950;28;20405;-83
2023/03/04 11:11:21;;;;;;;21.88;3.40;;;;;;;;;;5070895;28;20420;-82
2023/03/04 11:13:56;;;;;;;20.00;3.15;;;;;;;;;;5067410;28;20923;-82
2023/03/04 11:16:30;;;;;;;19.15;3.28;;;;;;;;;;5079968;28;20412;-81
2023/03/04 11:19:06;;;;;;;19.08;3.00;;;;;;;;;;5081671;28;20435;-81
2023/03/04 11:21:39;;;;;;;19.45;3.10;;;;;;;;;;5068986;28;20431;-82
2023/03/04 11:24:11;;;;;;;22.87;3.20;;;;;;;;;;5064777;28;21265;-82
2023/03/04 11:26:42;;;;;;;18.13;2.83;;;;;;;;;;5078643;28;21216;-81
2023/03/04 11:29:14;;;;;;;16.63;3.30;;;;;;;;;;5079225;28;20413;-84
2023/03/04 11:31:47;;;;;;;23.77;3.45;;;;;;;;;;5071461;28;20918;-82
2023/03/04 11:34:23;;;;;;;19.98;3.45;;;;;;;;;;5085137;28;20433;-82
2023/03/04 11:36:57;;;;;;;23.40;4.22;;;;;;;;;;5067680;28;20436;-85
2023/03/04 11:39:33;;;;;;;20.10;3.67;;;;;;;;;;5066883;28;20420;-84
2023/03/04 11:42:02;;;;;;;20.63;3.95;;;;;;;;;;5082217;28;20423;-84
2023/03/04 11:44:35;;;;;;;20.97;4.13;;;;;;;;;;5080118;28;20423;-83
2023/03/04 11:47:18;;;;;;;20.73;3.22;;;;;;;;;;5064719;28;20436;-82
2023/03/04 11:50:00;;;;;;;21.55;3.35;;;;;;;;;;5064484;28;20427;-84
2023/03/04 11:52:43;;;;;;;19.13;3.88;;;;;;;;;;5082868;28;20426;-82
2023/03/04 11:55:21;;;;;;;25.65;3.67;;;;;;;;;;5068080;28;20432;-84
2023/03/04 11:57:55;;;;;;;20.25;3.60;;;;;;;;;;5080462;28;20427;-85
2023/03/04 12:00:30;;;;;;;20.02;3.25;;;;;;;;;;5069557;28;20434;-83
2023/03/04 12:03:11;;;;;;;19.88;3.70;;;;;;;;;;5064266;28;20424;-82
2023/03/04 12:05:45;;;;;;;23.23;3.45;;;;;;;;;;5080146;28;20423;-83
2023/03/04 12:08:34;;;;;;;17.77;2.95;;;;;;;;;;5087120;28;20414;-82
2023/03/04 12:11:11;;;;;;;16.08;3.13;;;;;;;;;;5077717;28;20440;-83
2023/03/04 12:13:46;;;;;;;21.67;3.43;;;;;;;;;;5067464;28;20422;-82
2023/03/04 12:16:21;;;;;;;21.88;3.42;;;;;;;;;;5075820;28;20917;-83
2023/03/04 12:19:00;;;;;;;19.05;3.25;;;;;;;;;;5062041;28;20425;-83
2023/03/04 12:21:36;;;;;;;20.23;3.30;;;;;;;;;;5082229;28;20423;-83
2023/03/04 12:24:18;;;;;;;22.67;3.53;;;;;;;;;;5082357;28;20776;-83
2023/03/04 12:26:54;;;;;;;23.05;3.47;;;;;;;;;;5082103;28;20435;-85
2023/03/04 12:29:31;;;;;;;19.98;3.92;;;;;;;;;;5071751;28;20418;-84
2023/03/04 12:32:07;;;;;;;22.48;3.78;;;;;;;;;;5070310;28;20423;-83
2023/03/04 12:34:45;;;;;;;20.00;3.40;;;;;;;;;;5066926;28;20443;-84
2023/03/04 12:37:24;;;;;;;19.90;3.95;;;;;;;;;;5059714;28;20990;-83
2023/03/04 12:40:04;;;;;;;18.45;3.38;;;;;;;;;;5080519;28;20780;-84
2023/03/04 12:42:41;;;;;;;16.52;3.38;;;;;;;;;;5069241;28;20420;-82
2023/03/04 12:45:17;;;;;;;21.77;3.90;;;;;;;;;;5071811;28;20784;-83
2023/03/04 12:47:54;;;;;;;20.00;3.50;;;;;;;;;;5079538;28;20425;-83
2023/03/04 12:50:36;;;;;;;24.10;4.20;;;;;;;;;;5062653;28;20966;-83
2023/03/04 12:53:17;;;;;;;18.75;3.67;;;;;;;;;;5062503;28;20442;-83
2023/03/04 12:55:46;;;;;;;21.60;3.30;;;;;;;;;;5074959;28;20900;-82
2023/03/04 12:58:21;;;;;;;27.73;3.80;;;;;;;;;;5065772;28;20429;-83
2023/03/04 13:00:57;;;;;;;19.30;3.67;;;;;;;;;;5078457;28;20435;-83
2023/03/04 13:03:33;;;;;;;19.58;3.40;;;;;;;;;;5068989;28;20425;-84
2023/03/04 13:06:11;;;;;;;20.48;3.38;;;;;;;;;;5063600;28;20782;-82
2023/03/04 13:08:42;;;;;;;17.33;3.45;;;;;;;;;;5073937;28;20431;-83
2023/03/04 13:11:32;;;;;;;16.90;3.55;;;;;;;;;;5071861;28;20422;-82
2023/03/04 13:14:05;;;;;;;18.73;3.45;;;;;;;;;;5064714;28;20422;-82
2023/03/04 13:16:39;;;;;;;16.27;2.97;;;;;;;;;;5074865;28;20934;-84
2023/03/04 13:19:22;;;;;;;18.10;3.22;;;;;;;;;;5066757;28;20770;-83
2023/03/04 13:21:53;;;;;;;18.88;3.08;;;;;;;;;;5075484;28;20416;-83
2023/03/04 13:24:45;;;;;;;20.23;3.22;;;;;;;;;;5068199;28;20950;-82
2023/03/04 13:27:27;;;;;;;16.70;2.85;;;;;;;;;;5078184;28;20419;-83
2023/03/04 13:30:00;;;;;;;17.30;3.00;;;;;;;;;;5066008;28;20418;-83
2023/03/04 13:32:37;;;;;;;14.95;2.65;;;;;;;;;;5073170;28;20909;-83
2023/03/04 13:35:25;;;;;;;16.10;2.72;;;;;;;;;;5066614;28;20420;-83
2023/03/04 13:37:58;;;;;;;14.20;2.63;;;;;;;;;;5074361;28;20926;-83
2023/03/04 13:40:35;;;;;;;16.40;2.72;;;;;;;;;;5067949;28;20782;-83
2023/03/04 13:43:24;;;;;;;15.17;2.50;;;;;;;;;;5088981;28;20469;-83
2023/03/04 13:45:51;;;;;;;22.50;3.37;;;;;;;;;;5081419;28;20419;-82
2023/03/04 13:48:29;;;;;;;17.57;2.47;;;;;;;;;;5076176;28;20437;-85
2023/03/04 13:50:57;;;;;;;16.63;3.10;;;;;;;;;;5076070;28;20915;-82
2023/03/04 13:53:33;;;;;;;15.88;3.40;;;;;;;;;;5071054;28;21534;-83
2023/03/04 13:56:04;;;;;;;18.73;2.83;;;;;;;;;;5065519;28;20442;-83
2023/03/04 13:58:38;;;;;;;16.90;3.45;;;;;;;;;;5062240;28;20795;-84
2023/03/04 14:01:20;;;;;;;15.77;2.83;;;;;;;;;;5072838;28;20437;-83
2023/03/04 14:03:48;;;;;;;16.83;3.37;;;;;;;;;;5062745;28;20986;-83
2023/03/04 14:06:22;;;;;;;12.60;2.53;;;;;;;;;;5077999;28;20433;-83
2023/03/04 14:08:56;;;;;;;16.08;3.00;;;;;;;;;;5061141;28;20422;-83
2023/03/04 14:11:33;;;;;;;16.00;2.67;;;;;;;;;;5078893;28;20426;-83
2023/03/04 14:14:07;;;;;;;16.58;3.20;;;;;;;;;;5067920;28;20433;-83
2023/03/04 14:16:38;;;;;;;13.38;2.80;;;;;;;;;;5072266;28;20433;-84
2023/03/04 14:19:14;;;;;;;15.65;3.03;;;;;;;;;;5065558;28;20424;-85
2023/03/04 14:21:47;;;;;;;14.50;2.75;;;;;;;;;;5075407;28;20431;-83
2023/03/04 14:24:22;;;;;;;12.82;2.55;;;;;;;;;;5070895;28;20418;-83
2023/03/04 14:27:03;;;;;;;12.43;2.70;;;;;;;;;;5060228;28;20431;-83
2023/03/04 14:29:36;;;;;;;12.93;3.17;;;;;;;;;;5057706;28;20435;-84
2023/03/04 14:32:04;;;;;;;13.73;2.88;;;;;;;;;;5068624;28;20439;-84
2023/03/04 14:34:33;;;;;;;12.10;2.58;;;;;;;;;;5066714;28;20428;-83
2023/03/04 14:37:02;;;;;;;15.10;2.60;;;;;;;;;;5067580;28;20420;-84
2023/03/04 14:39:34;;;;;;;14.93;2.40;;;;;;;;;;5069325;28;20431;-83
2023/03/04 14:42:08;;;;;;;14.10;3.10;;;;;;;;;;5067769;28;20422;-84
2023/03/04 14:44:37;;;;;;;15.77;2.97;;;;;;;;;;5071270;28;20427;-83
2023/03/04 14:47:15;;;;;;;14.77;2.92;;;;;;;;;;5083431;28;20431;-83
2023/03/04 14:49:43;;;;;;;16.95;3.15;;;;;;;;;;5060136;28;20427;-83
2023/03/04 14:52:33;;;;;;;17.00;3.03;;;;;;;;;;5066353;28;20430;-84
2023/03/04 14:55:19;;;;;;;13.48;3.20;;;;;;;;;;5081927;28;20426;-86
2023/03/04 14:57:47;;;;;;;17.10;3.67;;;;;;;;;;5057307;28;20528;-88
2023/03/04 15:00:31;;;;;;;15.35;3.40;;;;;;;;;;5061307;28;20424;-83
2023/03/04 15:03:04;;;;;;;12.93;3.30;;;;;;;;;;5051943;28;21671;-87